createdAt,value
2018-07-19T00:00:06.076Z,71.80
2018-07-19T00:04:12.103Z,71.70
2018-07-19T00:06:15.239Z,72.50
2018-07-19T00:08:18.376Z,72.70
2018-07-19T00:10:21.502Z,73.00
2018-07-19T00:12:24.644Z,73.60
2018-07-19T00:14:28.475Z,74.40
2018-07-19T00:16:31.615Z,75.00
2018-07-19T00:18:34.752Z,75.40
2018-07-19T00:20:37.900Z,76.20
2018-07-19T00:22:41.996Z,76.90
2018-07-19T00:24:45.152Z,77.10
2018-07-19T00:26:48.296Z,77.50
2018-07-19T00:28:51.415Z,77.60
2018-07-19T00:30:54.630Z,77.80
2018-07-19T00:32:57.764Z,97.10
2018-07-19T00:35:00.908Z,78.20
2018-07-19T00:37:04.037Z,79.00
2018-07-19T00:39:07.880Z,79.00
2018-07-19T00:41:11.023Z,79.20
2018-07-19T00:43:14.156Z,79.20
2018-07-19T00:45:17.315Z,79.80
2018-07-19T00:47:20.435Z,80.00
2018-07-19T00:49:23.600Z,80.90
2018-07-19T00:51:26.731Z,81.20
2018-07-19T00:53:29.859Z,81.60
2018-07-19T00:55:33.179Z,82.00
2018-07-19T00:57:36.307Z,82.90
2018-07-19T00:59:39.447Z,83.60
2018-07-19T01:01:42.543Z,83.20
2018-07-19T01:03:45.636Z,83.10
2018-07-19T01:05:48.764Z,83.50
2018-07-19T01:07:51.879Z,84.60
2018-07-19T01:09:54.962Z,84.90
2018-07-19T01:11:58.064Z,85.20
2018-07-19T01:14:01.180Z,85.10
2018-07-19T01:16:04.288Z,85.40
2018-07-19T01:18:07.412Z,85.50
2018-07-19T01:20:10.508Z,86.30
2018-07-19T01:22:13.616Z,86.70
2018-07-19T01:24:16.738Z,87.40
2018-07-19T01:26:19.839Z,88.00
2018-07-19T01:28:22.928Z,88.60
2018-07-19T01:30:26.015Z,89.50
2018-07-19T02:11:27.818Z,97.50
2018-07-19T02:13:30.963Z,97.90
2018-07-19T02:15:34.096Z,98.50
2018-07-19T02:17:37.239Z,98.70
2018-07-19T02:19:40.380Z,99.00
2018-07-19T02:21:43.971Z,99.40
2018-07-19T02:23:47.107Z,99.60
2018-07-19T02:25:50.239Z,99.90
2018-07-19T02:27:53.379Z,99.60
2018-07-19T02:29:56.511Z,98.20
2018-07-19T02:31:59.639Z,96.40
2018-07-19T02:34:03.275Z,98.30
2018-07-19T02:36:06.417Z,99.00
2018-07-19T02:38:09.548Z,99.40
2018-07-19T02:40:12.715Z,98.90
2018-07-19T02:42:15.835Z,98.00
2018-07-19T02:44:19.639Z,99.90
2018-07-19T02:46:22.772Z,99.90
2018-07-19T02:48:25.940Z,99.90
2018-07-19T02:50:29.075Z,99.90
2018-07-19T02:52:32.199Z,99.90
2018-07-19T02:54:35.328Z,99.90
2018-07-19T02:56:38.476Z,99.90
2018-07-19T02:58:41.621Z,99.90
2018-07-19T03:00:44.767Z,99.90
2018-07-19T03:02:47.907Z,99.90
2018-07-19T03:04:51.087Z,99.90
2018-07-19T03:06:54.222Z,99.90
2018-07-19T03:08:57.351Z,99.90
2018-07-19T03:11:00.480Z,99.90
2018-07-19T03:13:03.617Z,99.90
2018-07-19T03:15:06.804Z,99.90
2018-07-19T03:17:09.940Z,99.90
2018-07-19T03:19:13.083Z,99.90
2018-07-19T03:21:16.228Z,99.90
2018-07-19T03:23:19.556Z,99.90
2018-07-19T03:25:22.704Z,99.90
2018-07-19T03:27:25.891Z,99.90
2018-07-19T03:29:29.024Z,99.90
2018-07-19T03:31:32.148Z,99.90
2018-07-19T03:33:35.263Z,99.90
2018-07-19T03:35:38.424Z,99.90
2018-07-19T03:37:41.568Z,99.90
2018-07-19T03:39:44.705Z,99.90
2018-07-19T03:41:47.840Z,99.90
2018-07-19T03:43:50.985Z,99.90
2018-07-19T03:45:54.127Z,99.90
2018-07-19T03:47:57.831Z,99.90
2018-07-19T03:50:00.967Z,99.90
2018-07-19T03:52:04.100Z,99.90
2018-07-19T03:56:10.149Z,99.90
2018-07-19T03:58:13.288Z,99.90
2018-07-19T04:00:16.427Z,99.90
2018-07-19T04:02:19.571Z,99.90
2018-07-19T04:04:22.703Z,99.90
2018-07-19T04:06:25.852Z,99.90
2018-07-19T04:08:28.979Z,99.90
2018-07-19T04:10:32.124Z,99.90
2018-07-19T04:12:35.440Z,99.90
2018-07-19T04:14:39.406Z,99.90
2018-07-19T04:16:42.548Z,99.90
2018-07-19T04:18:45.811Z,99.90
2018-07-19T04:20:48.933Z,99.90
2018-07-19T04:22:53.220Z,99.90
2018-07-19T04:24:56.340Z,99.90
2018-07-19T04:26:59.692Z,99.90
2018-07-19T04:29:02.840Z,99.90
2018-07-19T04:31:05.971Z,99.90
2018-07-19T04:33:09.128Z,99.90
2018-07-19T04:35:12.256Z,99.90
2018-07-19T04:37:15.392Z,99.90
2018-07-19T04:39:18.543Z,99.90
2018-07-19T04:41:21.656Z,99.90
2018-07-19T04:43:24.799Z,99.90
2018-07-19T04:45:27.928Z,99.90
2018-07-19T04:47:31.079Z,99.90
2018-07-19T04:49:34.209Z,99.90
2018-07-19T04:51:37.532Z,99.90
2018-07-19T04:53:40.676Z,99.90
2018-07-19T04:55:43.811Z,99.90
2018-07-19T04:57:46.956Z,99.90
2018-07-19T04:59:50.087Z,99.90
2018-07-19T05:01:53.292Z,99.90
2018-07-19T05:03:56.397Z,99.90
2018-07-19T05:05:59.524Z,99.90
2018-07-19T05:08:02.687Z,99.90
2018-07-19T05:10:05.815Z,99.90
2018-07-19T05:12:08.956Z,99.30
2018-07-19T05:14:12.155Z,98.40
2018-07-19T05:16:15.227Z,96.40
2018-07-19T05:18:18.371Z,94.30
2018-07-19T05:22:24.395Z,91.50
2018-07-19T05:24:27.572Z,90.80
2018-07-19T05:26:30.696Z,84.90
2018-07-19T05:28:33.852Z,83.20
2018-07-19T05:30:37.064Z,79.40
2018-07-19T05:32:40.183Z,76.50
2018-07-19T05:36:46.236Z,71.60
2018-07-19T05:38:49.368Z,68.30
2018-07-19T05:40:52.599Z,70.60
2018-07-19T05:42:55.722Z,68.70
2018-07-19T05:44:58.839Z,69.20
2018-07-19T05:47:01.996Z,65.50
2018-07-19T05:49:05.701Z,66.50
2018-07-19T05:51:08.848Z,67.30
2018-07-19T05:53:11.977Z,62.50
2018-07-19T05:55:15.117Z,60.10
2018-07-19T05:59:21.269Z,58.50
2018-07-19T06:01:24.872Z,56.40
2018-07-19T06:03:28.867Z,56.20
2018-07-19T06:05:31.975Z,55.60
2018-07-19T06:07:35.066Z,53.80
2018-07-19T06:09:38.182Z,54.30
2018-07-19T06:11:41.231Z,54.20
2018-07-19T06:13:44.332Z,54.70
2018-07-19T06:15:47.451Z,56.50
2018-07-19T06:17:50.536Z,56.40
2018-07-19T06:19:53.616Z,56.00
2018-07-19T06:21:56.696Z,55.60
2018-07-19T06:23:59.828Z,56.50
2018-07-19T06:26:02.941Z,58.10
2018-07-19T06:28:06.039Z,56.50
2018-07-19T06:30:09.116Z,57.40
2018-07-19T06:32:12.196Z,57.60
2018-07-19T06:34:15.288Z,57.90
2018-07-19T06:36:18.399Z,58.00
2018-07-19T06:38:21.492Z,58.70
2018-07-19T06:40:24.589Z,58.40
2018-07-19T06:44:31.119Z,56.40
2018-07-19T06:46:34.212Z,54.00
2018-07-19T06:48:37.313Z,54.60
2018-07-19T06:50:40.396Z,52.80
2018-07-19T06:52:43.503Z,51.40
2018-07-19T06:56:49.487Z,49.60
2018-07-19T07:00:55.484Z,50.90
2018-07-19T07:05:01.505Z,50.70
2018-07-19T07:07:04.760Z,49.70
2018-07-19T07:09:09.216Z,50.60
2018-07-19T07:11:12.315Z,51.60
2018-07-19T07:13:15.417Z,50.80
2018-07-19T07:15:18.536Z,50.10
2018-07-19T07:17:21.748Z,50.60
2018-07-19T07:19:24.844Z,48.50
2018-07-19T07:21:28.830Z,49.30
2018-07-19T07:23:31.915Z,50.70
2018-07-19T07:25:47.309Z,50.50
2018-07-19T07:27:50.395Z,50.60
2018-07-19T07:29:53.564Z,49.40
2018-07-19T07:31:56.651Z,48.80
2018-07-19T07:33:59.880Z,48.40
2018-07-19T07:36:02.929Z,47.90
2018-07-19T07:38:06.008Z,47.30
2018-07-19T07:40:09.088Z,46.50
2018-07-19T07:42:12.175Z,46.00
2018-07-19T07:44:15.334Z,47.10
2018-07-19T07:46:18.364Z,45.90
2018-07-19T07:48:21.448Z,46.30
2018-07-19T07:50:24.548Z,45.40
2018-07-19T07:54:30.570Z,45.90
2018-07-19T07:56:33.667Z,44.50
2018-07-19T07:58:36.755Z,43.60
2018-07-19T08:00:39.892Z,43.30
2018-07-19T08:02:42.987Z,41.80
2018-07-19T08:04:46.098Z,41.90
2018-07-19T08:06:49.189Z,41.80
2018-07-19T08:08:52.317Z,41.40
2018-07-19T08:10:55.400Z,41.00
2018-07-19T08:15:01.356Z,41.40
2018-07-19T08:17:04.469Z,41.00
2018-07-19T08:23:13.446Z,82.70
2018-07-19T08:27:19.947Z,38.00
2018-07-19T08:31:26.038Z,39.20
2018-07-19T08:33:29.143Z,38.10
2018-07-19T08:37:35.119Z,36.60
2018-07-19T08:39:38.350Z,36.40
2018-07-19T08:41:42.195Z,36.70
2018-07-19T08:45:49.272Z,35.80
2018-07-19T08:47:52.375Z,36.00
2018-07-19T08:49:55.500Z,36.40
2018-07-19T08:51:58.600Z,35.20
2018-07-19T08:54:01.703Z,34.40
2018-07-19T08:56:04.782Z,34.00
2018-07-19T08:58:07.891Z,34.00
2018-07-19T09:00:11.011Z,33.80
2018-07-19T09:02:14.137Z,34.30
2018-07-19T09:04:17.204Z,33.90
2018-07-19T09:06:20.284Z,34.00
2018-07-19T09:08:23.384Z,34.00
2018-07-19T09:10:26.510Z,34.10
2018-07-19T09:12:29.593Z,34.70
2018-07-19T09:16:35.615Z,34.50
2018-07-19T09:18:38.717Z,34.20
2018-07-19T09:22:44.841Z,33.40
2018-07-19T09:24:47.914Z,34.30
2018-07-19T09:26:51.504Z,35.00
2018-07-19T09:28:54.599Z,34.90
2018-07-19T09:30:57.676Z,34.30
2018-07-19T09:33:00.764Z,35.20
2018-07-19T09:35:03.899Z,34.80
2018-07-19T09:37:06.991Z,34.50
2018-07-19T09:39:11.913Z,35.40
2018-07-19T09:41:15.011Z,36.30
2018-07-19T09:43:18.169Z,35.90
2018-07-19T09:45:21.314Z,36.60
2018-07-19T09:47:24.397Z,36.30
2018-07-19T09:49:27.495Z,36.00
2018-07-19T09:51:30.595Z,36.20
2018-07-19T09:55:36.691Z,35.80
2018-07-19T09:57:39.768Z,36.70
2018-07-19T09:59:42.849Z,36.10
2018-07-19T10:01:45.953Z,36.70
2018-07-19T10:03:50.651Z,37.00
2018-07-19T10:07:57.291Z,36.50
2018-07-19T10:10:00.453Z,37.10
2018-07-19T10:32:33.228Z,36.30
2018-07-19T10:44:50.827Z,37.60
2018-07-19T10:46:53.932Z,37.30
2018-07-19T10:48:57.008Z,37.30
2018-07-19T10:51:00.104Z,37.10
2018-07-19T10:55:06.069Z,36.80
2018-07-19T10:57:09.539Z,37.30
2018-07-19T10:59:12.627Z,37.00
2018-07-19T11:01:15.768Z,37.00
2018-07-19T11:03:18.911Z,37.30
2018-07-19T11:05:22.054Z,36.40
2018-07-19T11:07:25.220Z,36.80
2018-07-19T11:09:28.531Z,36.30
2018-07-19T11:11:31.612Z,37.20
2018-07-19T11:13:34.763Z,36.30
2018-07-19T11:15:37.907Z,35.60
2018-07-19T11:17:41.076Z,35.90
2018-07-19T11:19:44.216Z,34.40
2018-07-19T11:21:47.358Z,34.40
2018-07-19T11:23:50.500Z,35.10
2018-07-19T11:25:53.638Z,34.60
2018-07-19T11:27:56.816Z,33.80
2018-07-19T11:29:59.943Z,34.60
2018-07-19T11:32:03.066Z,34.30
2018-07-19T11:34:06.235Z,33.60
2018-07-19T11:36:09.403Z,34.00
2018-07-19T11:38:12.548Z,33.50
2018-07-19T11:42:18.700Z,32.80
2018-07-19T11:44:21.975Z,32.20
2018-07-19T11:46:25.125Z,31.40
2018-07-19T11:48:28.287Z,32.00
2018-07-19T11:50:31.423Z,33.00
2018-07-19T11:52:34.552Z,32.50
2018-07-19T11:54:37.689Z,32.30
2018-07-19T11:56:40.827Z,32.10
2018-07-19T11:58:43.960Z,31.70
2018-07-19T12:00:47.163Z,31.60
2018-07-19T12:02:50.319Z,31.60
2018-07-19T12:04:53.455Z,31.70
2018-07-19T12:06:56.583Z,32.30
2018-07-19T12:08:59.724Z,31.80
2018-07-19T12:11:02.940Z,32.20
2018-07-19T12:13:06.455Z,32.20
2018-07-19T12:15:09.603Z,32.20
2018-07-19T12:19:15.847Z,31.70
2018-07-19T12:21:19.020Z,32.80
2018-07-19T12:23:22.755Z,33.10
2018-07-19T12:25:25.895Z,32.40
2018-07-19T12:27:29.031Z,32.80
2018-07-19T12:29:32.207Z,32.20
2018-07-19T12:31:35.359Z,32.10
2018-07-19T12:33:38.497Z,32.90
2018-07-19T12:35:41.636Z,33.20
2018-07-19T12:37:44.768Z,33.10
2018-07-19T12:41:50.900Z,31.80
2018-07-19T12:43:54.080Z,32.10
2018-07-19T12:45:57.252Z,33.00
2018-07-19T12:48:00.404Z,33.50
2018-07-19T12:50:03.969Z,32.50
2018-07-19T12:52:07.155Z,32.70
2018-07-19T12:54:10.261Z,33.10
2018-07-19T12:56:13.424Z,32.50
2018-07-19T12:58:16.559Z,32.20
2018-07-19T13:00:19.683Z,31.70
2018-07-19T13:02:22.762Z,31.80
2018-07-19T13:04:25.844Z,32.60
2018-07-19T13:06:28.964Z,33.00
2018-07-19T13:08:32.039Z,32.30
2018-07-19T13:10:35.199Z,31.60
2018-07-19T13:12:38.337Z,31.80
2018-07-19T13:14:41.413Z,32.60
2018-07-19T13:18:47.392Z,62.10
2018-07-19T13:20:50.484Z,32.60
2018-07-19T13:22:53.579Z,32.40
2018-07-19T13:24:56.672Z,32.90
2018-07-19T13:31:05.792Z,32.60
2018-07-19T13:33:08.908Z,33.20
2018-07-19T13:37:14.944Z,33.20
2018-07-19T13:39:18.152Z,32.40
2018-07-19T13:41:21.266Z,32.50
2018-07-19T13:43:24.392Z,33.00
2018-07-19T13:45:27.541Z,32.20
2018-07-19T13:49:33.605Z,31.00
2018-07-19T13:51:36.767Z,31.30
2018-07-19T13:53:54.343Z,31.10
2018-07-19T13:55:57.548Z,31.20
2018-07-19T13:58:00.693Z,31.10
2018-07-19T14:08:15.691Z,73.90
2018-07-19T14:12:21.663Z,30.70
2018-07-19T14:14:24.747Z,30.60
2018-07-19T14:20:33.639Z,28.80
2018-07-19T14:22:36.748Z,29.60
2018-07-19T14:26:42.880Z,29.40
2018-07-19T14:28:45.976Z,29.80
2018-07-19T14:30:49.080Z,29.90
2018-07-19T14:32:52.179Z,30.20
2018-07-19T14:34:55.267Z,30.10
2018-07-19T14:36:58.371Z,30.20
2018-07-19T14:41:04.687Z,29.50
2018-07-19T14:43:07.788Z,29.80
2018-07-19T14:45:10.875Z,30.10
2018-07-19T14:47:13.982Z,30.40
2018-07-19T14:53:22.892Z,30.20
2018-07-19T14:55:25.964Z,30.80
2018-07-19T14:57:29.047Z,30.00
2018-07-19T14:59:32.140Z,30.10
2018-07-19T15:01:36.092Z,30.60
2018-07-19T15:05:42.170Z,30.00
2018-07-19T15:07:45.304Z,30.00
2018-07-19T15:09:48.444Z,30.30
2018-07-19T15:11:51.584Z,30.10
2018-07-19T15:13:54.739Z,29.60
2018-07-19T15:15:57.876Z,29.70
2018-07-19T15:18:01.036Z,29.70
2018-07-19T15:20:04.512Z,29.80
2018-07-19T15:22:07.654Z,29.40
2018-07-19T15:26:13.738Z,29.90
2018-07-19T15:28:16.871Z,30.30
2018-07-19T15:30:20.072Z,30.10
2018-07-19T15:32:23.213Z,30.60
2018-07-19T15:34:26.432Z,29.60
2018-07-19T15:38:32.417Z,29.70
2018-07-19T15:40:36.143Z,30.00
2018-07-19T15:42:39.293Z,30.90
2018-07-19T15:44:42.435Z,31.10
2018-07-19T15:46:45.551Z,30.70
2018-07-19T15:48:48.712Z,29.90
2018-07-19T15:50:51.836Z,30.10
2018-07-19T15:57:00.871Z,29.90
2018-07-19T15:59:04.027Z,30.70
2018-07-19T16:01:07.176Z,30.90
2018-07-19T16:03:10.316Z,31.10
2018-07-19T16:05:13.475Z,30.00
2018-07-19T16:07:16.615Z,30.60
2018-07-19T16:09:19.762Z,30.90
2018-07-19T16:11:22.928Z,30.40
2018-07-19T16:13:26.064Z,30.60
2018-07-19T16:15:29.194Z,30.40
2018-07-19T16:17:32.336Z,30.30
2018-07-19T16:19:35.501Z,30.60
2018-07-19T16:21:38.657Z,30.20
2018-07-19T16:23:41.771Z,30.90
2018-07-19T16:25:44.988Z,31.40
2018-07-19T16:27:48.120Z,31.70
2018-07-19T16:29:51.259Z,31.50
2018-07-19T16:31:54.405Z,31.40
2018-07-19T16:33:57.535Z,31.30
2018-07-19T16:38:03.680Z,30.20
2018-07-19T16:40:07.016Z,30.30
2018-07-19T16:42:10.159Z,30.80
2018-07-19T16:44:13.288Z,30.10
2018-07-19T16:46:16.421Z,30.00
2018-07-19T16:48:19.656Z,30.10
2018-07-19T16:50:22.791Z,30.20
2018-07-19T16:52:25.931Z,30.10
2018-07-19T16:54:29.064Z,30.00
2018-07-19T16:56:32.199Z,30.60
2018-07-19T16:58:35.340Z,30.30
2018-07-19T17:00:38.491Z,29.70
2018-07-19T17:02:41.650Z,30.00
2018-07-19T17:04:44.771Z,30.10
2018-07-19T17:06:47.915Z,30.60
2018-07-19T17:08:51.045Z,31.00
2018-07-19T17:10:54.712Z,30.60
2018-07-19T17:12:58.076Z,30.10
2018-07-19T17:15:01.220Z,30.80
2018-07-19T17:17:04.508Z,30.60
2018-07-19T17:19:07.640Z,30.90
2018-07-19T17:21:10.807Z,31.70
2018-07-19T17:23:13.948Z,31.90
2018-07-19T17:27:20.028Z,32.10
2018-07-19T17:29:23.165Z,31.70
2018-07-19T17:31:26.308Z,32.00
2018-07-19T17:33:29.447Z,32.80
2018-07-19T17:35:32.580Z,32.70
2018-07-19T17:37:35.711Z,32.60
2018-07-19T17:39:38.853Z,32.90
2018-07-19T17:41:42.484Z,32.90
2018-07-19T17:43:45.651Z,33.10
2018-07-19T17:45:49.078Z,33.00
2018-07-19T17:47:52.201Z,33.40
2018-07-19T17:49:55.343Z,33.70
2018-07-19T17:51:58.472Z,34.40
2018-07-19T17:54:01.616Z,34.50
2018-07-19T17:56:04.740Z,34.80
2018-07-19T17:58:07.892Z,35.10
2018-07-19T18:00:11.055Z,35.40
2018-07-19T18:02:14.263Z,35.30
2018-07-19T18:04:17.408Z,35.30
2018-07-19T18:06:20.577Z,35.10
2018-07-19T18:08:23.695Z,35.10
2018-07-19T18:10:26.860Z,35.20
2018-07-19T18:12:30.022Z,35.50
2018-07-19T18:14:33.164Z,35.20
2018-07-19T18:16:36.327Z,35.40
2018-07-19T18:18:39.456Z,36.10
2018-07-19T18:20:42.579Z,34.90
2018-07-19T18:22:45.720Z,34.80
2018-07-19T18:24:48.879Z,34.70
2018-07-19T18:26:52.072Z,34.80
2018-07-19T18:28:55.208Z,34.50
2018-07-19T18:33:01.259Z,35.50
2018-07-19T18:35:04.467Z,36.70
2018-07-19T18:37:07.631Z,36.10
2018-07-19T18:43:18.113Z,36.60
2018-07-19T18:45:21.252Z,36.80
2018-07-19T18:47:24.406Z,37.90
2018-07-19T18:49:27.600Z,39.10
2018-07-19T18:51:30.779Z,40.20
2018-07-19T18:53:33.920Z,40.00
2018-07-19T18:55:37.067Z,40.90
2018-07-19T18:57:40.316Z,40.70
2018-07-19T18:59:44.102Z,41.20
2018-07-19T19:01:47.212Z,41.80
2018-07-19T19:03:50.878Z,42.70
2018-07-19T19:05:54.023Z,43.20
2018-07-19T19:07:57.108Z,44.10
2018-07-19T19:10:00.192Z,44.40
2018-07-19T19:12:03.300Z,44.60
2018-07-19T19:14:06.376Z,44.60
2018-07-19T19:16:09.468Z,44.90
2018-07-19T19:18:12.555Z,45.50
2018-07-19T19:20:15.655Z,45.60
2018-07-19T19:22:18.748Z,45.40
2018-07-19T19:24:21.888Z,45.90
2018-07-19T19:26:25.004Z,46.10
2018-07-19T19:28:28.247Z,46.10
2018-07-19T19:30:31.288Z,46.10
2018-07-19T19:32:34.415Z,46.30
2018-07-19T19:34:37.476Z,46.40
2018-07-19T19:36:40.881Z,46.40
2018-07-19T19:38:43.963Z,47.00
2018-07-19T19:40:47.056Z,47.40
2018-07-19T19:42:50.181Z,47.60
2018-07-19T19:44:53.324Z,48.00
2018-07-19T19:46:56.356Z,91.10
2018-07-19T19:48:59.431Z,89.80
2018-07-19T20:03:20.704Z,53.30
2018-07-19T20:05:23.803Z,52.80
2018-07-19T20:07:26.918Z,53.10
2018-07-19T20:09:30.013Z,53.50
2018-07-19T20:11:33.984Z,53.30
2018-07-19T20:13:37.019Z,53.40
2018-07-19T20:15:40.108Z,53.50
2018-07-19T20:36:10.553Z,57.10
2018-07-19T20:58:42.704Z,87.20
2018-07-19T21:00:45.860Z,93.30
2018-07-19T21:02:49.583Z,93.10
2018-07-19T21:04:52.724Z,70.00
2018-07-19T21:06:55.848Z,70.40
2018-07-19T21:08:58.979Z,71.30
2018-07-19T21:11:02.108Z,71.00
2018-07-19T21:13:05.481Z,63.40
2018-07-19T21:15:08.620Z,63.60
2018-07-19T21:17:11.811Z,63.60
2018-07-19T21:19:14.934Z,63.50
2018-07-19T21:21:18.119Z,64.20
2018-07-19T21:23:21.254Z,64.00
2018-07-19T21:25:24.380Z,64.90
2018-07-19T21:29:30.511Z,65.40
2018-07-19T21:31:33.659Z,64.70
2018-07-19T21:33:36.881Z,64.50
2018-07-19T21:35:40.068Z,64.50
2018-07-19T21:37:43.205Z,64.50
2018-07-19T21:39:46.321Z,63.70
2018-07-19T21:41:49.467Z,63.00
2018-07-19T21:43:52.596Z,62.30
2018-07-19T21:45:55.744Z,62.50
2018-07-19T21:47:59.755Z,62.20
2018-07-19T21:50:02.886Z,62.90
2018-07-19T21:52:06.052Z,62.50
2018-07-19T21:54:09.175Z,62.60
2018-07-19T21:56:12.322Z,63.00
2018-07-19T21:58:15.447Z,62.90
2018-07-19T22:00:18.583Z,62.60
2018-07-19T22:02:21.728Z,62.40
2018-07-19T22:04:24.862Z,62.30
2018-07-19T22:06:28.096Z,62.20
2018-07-19T22:08:31.468Z,62.50
2018-07-19T22:10:34.607Z,63.80
2018-07-19T22:12:37.774Z,64.80
2018-07-19T22:14:40.896Z,65.00
2018-07-19T22:16:44.132Z,64.60
2018-07-19T22:18:47.252Z,65.70
2018-07-19T22:20:50.380Z,66.70
2018-07-19T22:22:53.522Z,66.40
2018-07-19T22:24:56.663Z,66.30
2018-07-19T22:26:59.803Z,66.70
2018-07-19T22:29:02.943Z,67.20
2018-07-19T22:31:06.275Z,67.50
2018-07-19T22:33:09.403Z,91.70
2018-07-19T22:35:12.540Z,90.40
2018-07-19T22:37:15.672Z,90.70
2018-07-19T22:41:21.800Z,70.00
2018-07-19T22:45:27.905Z,71.80
2018-07-19T22:47:31.026Z,71.80
2018-07-19T22:49:34.152Z,72.70
2018-07-19T22:51:37.292Z,73.40
2018-07-19T22:53:40.991Z,73.40
2018-07-19T22:55:44.140Z,74.00
2018-07-19T22:57:47.294Z,74.80
2018-07-19T22:59:50.428Z,74.90
2018-07-19T23:01:53.583Z,75.60
2018-07-19T23:03:56.704Z,75.80
2018-07-19T23:05:59.872Z,75.90
2018-07-19T23:08:03.034Z,76.30
2018-07-19T23:10:06.164Z,76.00
2018-07-19T23:12:09.298Z,76.00
2018-07-19T23:14:12.455Z,76.60
2018-07-19T23:16:15.935Z,76.30
2018-07-19T23:18:19.084Z,77.10
2018-07-19T23:20:22.288Z,76.70
2018-07-19T23:22:25.584Z,76.70
2018-07-19T23:24:28.756Z,76.60
2018-07-19T23:26:31.908Z,76.80
2018-07-19T23:28:35.053Z,78.60
2018-07-19T23:30:38.485Z,78.20
2018-07-19T23:32:41.620Z,78.90
2018-07-19T23:34:45.017Z,79.10
2018-07-19T23:36:53.419Z,79.40
2018-07-19T23:38:59.995Z,79.90
2018-07-19T23:41:05.943Z,79.20
2018-07-19T23:43:13.528Z,79.60
2018-07-19T23:46:23.746Z,78.30
